createdAt,value
2023-03-17T00:00:54.796Z,0.00
2023-03-17T00:01:55.109Z,0.00
2023-03-17T00:02:54.773Z,0.00
2023-03-17T00:03:54.805Z,0.00
2023-03-17T00:04:54.756Z,0.00
2023-03-17T00:05:54.753Z,0.00
2023-03-17T00:06:54.736Z,0.00
2023-03-17T00:07:54.729Z,0.00
2023-03-17T00:08:54.719Z,0.00
2023-03-17T00:09:54.709Z,0.00
2023-03-17T00:10:54.703Z,0.00
2023-03-17T00:11:54.713Z,0.00
2023-03-17T00:12:54.678Z,0.00
2023-03-17T00:13:54.708Z,0.00
2023-03-17T00:14:54.661Z,0.00
2023-03-17T00:15:54.772Z,0.00
2023-03-17T00:16:54.653Z,0.00
2023-03-17T00:17:54.643Z,0.00
2023-03-17T00:18:54.646Z,0.00
2023-03-17T00:19:54.631Z,0.00
2023-03-17T00:20:54.646Z,0.00
2023-03-17T00:21:54.607Z,0.00
2023-03-17T00:22:54.611Z,0.00
2023-03-17T00:23:54.612Z,0.00
2023-03-17T00:24:54.594Z,0.00
2023-03-17T00:25:54.576Z,0.00
2023-03-17T00:26:54.589Z,0.00
2023-03-17T00:27:54.578Z,0.00
2023-03-17T00:28:54.568Z,0.00
2023-03-17T00:29:54.582Z,0.00
2023-03-17T00:30:54.624Z,0.00
2023-03-17T00:31:54.539Z,0.00
2023-03-17T00:32:54.605Z,0.00
2023-03-17T00:33:54.521Z,0.00
2023-03-17T00:34:54.518Z,0.00
2023-03-17T00:35:54.578Z,0.00
2023-03-17T00:36:54.513Z,0.00
2023-03-17T00:37:54.493Z,0.00
2023-03-17T00:38:54.488Z,0.00
2023-03-17T00:39:54.474Z,0.00
2023-03-17T00:40:54.465Z,0.00
2023-03-17T00:41:54.454Z,0.00
2023-03-17T00:42:54.470Z,0.00
2023-03-17T00:43:54.437Z,0.00
2023-03-17T00:44:54.432Z,0.00
2023-03-17T00:45:54.439Z,0.00
2023-03-17T00:46:54.481Z,0.00
2023-03-17T00:47:54.407Z,0.00
2023-03-17T00:48:54.405Z,0.00
2023-03-17T00:49:54.392Z,0.00
2023-03-17T00:50:54.388Z,0.00
2023-03-17T00:51:54.394Z,0.00
2023-03-17T00:52:54.385Z,0.00
2023-03-17T00:53:54.359Z,0.00
2023-03-17T00:54:54.358Z,0.00
2023-03-17T00:55:54.346Z,0.00
2023-03-17T00:56:54.349Z,0.00
2023-03-17T00:57:54.328Z,0.00
2023-03-17T00:58:54.328Z,0.00
2023-03-17T00:59:54.317Z,0.00
2023-03-17T01:00:54.317Z,0.00
2023-03-17T01:01:54.342Z,0.00
2023-03-17T01:02:54.295Z,0.00
2023-03-17T01:03:54.284Z,0.00
2023-03-17T01:05:05.511Z,0.00
2023-03-17T01:05:54.311Z,0.00
2023-03-17T01:06:54.298Z,0.00
2023-03-17T01:07:54.248Z,0.00
2023-03-17T01:08:54.246Z,0.00
2023-03-17T01:09:54.238Z,0.00
2023-03-17T01:10:54.224Z,0.00
2023-03-17T01:11:54.234Z,0.00
2023-03-17T01:12:54.221Z,0.00
2023-03-17T01:13:54.228Z,0.00
2023-03-17T01:14:54.205Z,0.00
2023-03-17T01:15:54.267Z,0.00
2023-03-17T01:16:54.185Z,0.00
2023-03-17T01:17:54.187Z,0.00
2023-03-17T01:18:54.207Z,0.00
2023-03-17T01:19:54.164Z,0.00
2023-03-17T01:20:54.151Z,0.00
2023-03-17T01:21:54.162Z,0.00
2023-03-17T01:22:54.133Z,0.00
2023-03-17T01:23:54.141Z,0.00
2023-03-17T01:24:54.122Z,0.00
2023-03-17T01:25:54.123Z,0.00
2023-03-17T01:26:54.119Z,0.00
2023-03-17T01:27:54.129Z,0.00
2023-03-17T01:28:54.099Z,0.00
2023-03-17T01:29:54.103Z,0.00
2023-03-17T01:30:54.073Z,0.00
2023-03-17T01:31:54.170Z,0.00
2023-03-17T01:32:54.164Z,0.00
2023-03-17T01:33:54.055Z,0.00
2023-03-17T01:34:54.063Z,0.00
2023-03-17T01:35:54.107Z,0.00
2023-03-17T01:36:54.031Z,0.00
2023-03-17T01:37:54.024Z,0.00
2023-03-17T01:38:54.035Z,0.00
2023-03-17T01:39:54.008Z,0.00
2023-03-17T01:40:53.998Z,0.00
2023-03-17T01:41:53.987Z,0.00
2023-03-17T01:42:53.990Z,0.00
2023-03-17T01:43:53.979Z,0.00
2023-03-17T01:44:53.977Z,0.00
2023-03-17T01:45:53.999Z,0.00
2023-03-17T01:46:53.956Z,0.00
2023-03-17T01:47:53.944Z,0.00
2023-03-17T01:48:53.945Z,0.00
2023-03-17T01:49:53.937Z,0.00
2023-03-17T01:50:53.927Z,0.00
2023-03-17T01:51:53.928Z,0.00
2023-03-17T01:52:53.914Z,0.00
2023-03-17T01:53:53.904Z,0.00
2023-03-17T01:54:53.896Z,0.00
2023-03-17T01:55:53.889Z,0.00
2023-03-17T01:56:53.875Z,0.00
2023-03-17T01:57:53.872Z,0.00
2023-03-17T01:58:53.864Z,0.00
2023-03-17T01:59:53.862Z,0.00
2023-03-17T02:00:53.868Z,0.00
2023-03-17T02:01:53.845Z,0.00
2023-03-17T02:02:53.840Z,0.00
2023-03-17T02:03:53.864Z,0.00
2023-03-17T02:04:53.821Z,0.00
2023-03-17T02:05:53.817Z,0.00
2023-03-17T02:07:00.953Z,0.00
2023-03-17T02:07:53.799Z,0.00
2023-03-17T02:08:53.798Z,0.00
2023-03-17T02:09:53.778Z,0.00
2023-03-17T02:10:53.768Z,0.00
2023-03-17T02:11:53.767Z,0.00
2023-03-17T02:12:53.751Z,0.00
2023-03-17T02:13:53.756Z,0.00
2023-03-17T02:14:53.739Z,0.00
2023-03-17T02:15:53.746Z,0.00
2023-03-17T02:16:53.827Z,0.00
2023-03-17T02:17:53.716Z,0.00
2023-03-17T02:18:53.715Z,0.00
2023-03-17T02:19:53.714Z,0.00
2023-03-17T02:20:53.692Z,0.00
2023-03-17T02:21:53.696Z,0.00
2023-03-17T02:22:53.693Z,0.00
2023-03-17T02:23:53.677Z,0.00
2023-03-17T02:24:53.670Z,0.00
2023-03-17T02:25:53.663Z,0.00
2023-03-17T02:26:53.649Z,0.00
2023-03-17T02:27:53.647Z,0.00
2023-03-17T02:28:53.645Z,0.00
2023-03-17T02:29:53.628Z,0.00
2023-03-17T02:30:53.673Z,0.00
2023-03-17T02:31:53.624Z,0.00
2023-03-17T02:32:53.686Z,0.00
2023-03-17T02:33:53.599Z,0.00
2023-03-17T02:34:53.590Z,0.00
2023-03-17T02:35:53.612Z,0.00
2023-03-17T02:36:53.624Z,0.00
2023-03-17T02:37:53.573Z,0.00
2023-03-17T02:38:53.570Z,0.00
2023-03-17T02:39:53.552Z,0.00
2023-03-17T02:40:53.540Z,0.00
2023-03-17T02:41:53.535Z,0.00
2023-03-17T02:42:53.524Z,0.00
2023-03-17T02:43:53.520Z,0.00
2023-03-17T02:44:53.509Z,0.00
2023-03-17T02:45:53.603Z,0.00
2023-03-17T02:46:53.496Z,0.00
2023-03-17T02:47:53.491Z,0.00
2023-03-17T02:48:53.486Z,0.00
2023-03-17T02:49:53.489Z,0.00
2023-03-17T02:50:53.473Z,0.00
2023-03-17T02:51:53.460Z,0.00
2023-03-17T02:52:53.455Z,0.00
2023-03-17T02:53:53.454Z,0.00
2023-03-17T02:54:53.453Z,0.00
2023-03-17T02:55:53.423Z,0.00
2023-03-17T02:56:53.426Z,0.00
2023-03-17T02:57:53.409Z,0.00
2023-03-17T02:58:53.401Z,0.00
2023-03-17T02:59:53.396Z,0.00
2023-03-17T03:00:53.386Z,0.00
2023-03-17T03:01:53.381Z,0.00
2023-03-17T03:02:53.507Z,0.00
2023-03-17T03:03:53.367Z,0.00
2023-03-17T03:04:53.374Z,0.00
2023-03-17T03:05:53.343Z,0.00
2023-03-17T03:06:53.350Z,0.00
2023-03-17T03:07:53.341Z,0.00
2023-03-17T03:08:53.322Z,0.00
2023-03-17T03:09:53.312Z,0.00
2023-03-17T03:10:53.313Z,0.00
2023-03-17T03:11:53.302Z,0.00
2023-03-17T03:12:53.299Z,0.00
2023-03-17T03:13:53.288Z,0.00
2023-03-17T03:14:53.284Z,0.00
2023-03-17T03:15:53.346Z,0.00
2023-03-17T03:16:53.260Z,0.00
2023-03-17T03:17:53.249Z,0.00
2023-03-17T03:18:53.237Z,0.00
2023-03-17T03:19:53.257Z,0.00
2023-03-17T03:20:53.229Z,0.00
2023-03-17T03:21:53.224Z,0.00
2023-03-17T03:22:53.216Z,0.00
2023-03-17T03:23:53.223Z,0.00
2023-03-17T03:24:53.197Z,0.00
2023-03-17T03:25:53.197Z,0.00
2023-03-17T03:26:53.186Z,0.00
2023-03-17T03:27:53.169Z,0.00
2023-03-17T03:28:53.158Z,0.00
2023-03-17T03:29:53.157Z,0.00
2023-03-17T03:30:53.174Z,0.00
2023-03-17T03:31:53.143Z,0.00
2023-03-17T03:32:53.214Z,0.00
2023-03-17T03:33:53.124Z,0.00
2023-03-17T03:34:53.132Z,0.00
2023-03-17T03:35:53.155Z,0.00
2023-03-17T03:36:53.097Z,0.00
2023-03-17T03:37:53.098Z,0.00
2023-03-17T03:38:53.094Z,0.00
2023-03-17T03:39:53.072Z,0.00
2023-03-17T03:40:53.070Z,0.00
2023-03-17T03:41:53.060Z,0.00
2023-03-17T03:42:53.066Z,0.00
2023-03-17T03:43:53.038Z,0.00
2023-03-17T03:44:53.038Z,0.00
2023-03-17T03:45:53.027Z,0.00
2023-03-17T03:46:53.079Z,0.00
2023-03-17T03:47:53.006Z,0.00
2023-03-17T03:48:53.002Z,0.00
2023-03-17T03:49:52.986Z,0.00
2023-03-17T03:50:52.993Z,0.00
2023-03-17T03:51:52.991Z,0.00
2023-03-17T03:52:52.962Z,0.00
2023-03-17T03:53:52.974Z,0.00
2023-03-17T03:54:52.968Z,0.00
2023-03-17T03:55:52.938Z,0.00
2023-03-17T03:56:52.936Z,0.00
2023-03-17T03:57:52.923Z,0.00
2023-03-17T03:58:52.917Z,0.00
2023-03-17T03:59:52.899Z,0.00
2023-03-17T04:00:52.900Z,0.00
2023-03-17T04:01:52.888Z,0.00
2023-03-17T04:02:53.026Z,0.00
2023-03-17T04:03:52.882Z,0.00
2023-03-17T04:04:52.895Z,0.00
2023-03-17T04:05:52.863Z,0.00
2023-03-17T04:06:52.840Z,0.00
2023-03-17T04:07:52.847Z,0.00
2023-03-17T04:08:52.831Z,0.00
2023-03-17T04:09:52.829Z,0.00
2023-03-17T04:10:52.809Z,0.00
2023-03-17T04:11:52.807Z,0.00
2023-03-17T04:12:52.800Z,0.00
2023-03-17T04:13:52.815Z,0.00
2023-03-17T04:14:52.783Z,0.00
2023-03-17T04:15:52.817Z,0.00
2023-03-17T04:16:52.774Z,0.00
2023-03-17T04:17:52.770Z,0.00
2023-03-17T04:18:52.808Z,0.00
2023-03-17T04:19:52.735Z,0.00
2023-03-17T04:20:52.753Z,0.00
2023-03-17T04:21:54.666Z,0.00
2023-03-17T04:22:52.716Z,0.00
2023-03-17T04:23:52.703Z,0.00
2023-03-17T04:24:52.710Z,0.00
2023-03-17T04:25:52.689Z,0.00
2023-03-17T04:26:52.678Z,0.00
2023-03-17T04:27:52.671Z,0.00
2023-03-17T04:28:52.659Z,0.00
2023-03-17T04:29:52.653Z,0.00
2023-03-17T04:30:52.719Z,0.00
2023-03-17T04:31:52.681Z,0.00
2023-03-17T04:32:52.665Z,0.00
2023-03-17T04:33:52.614Z,0.00
2023-03-17T04:34:52.612Z,0.00
2023-03-17T04:35:52.684Z,0.00
2023-03-17T04:36:52.599Z,0.00
2023-03-17T04:37:52.583Z,0.00
2023-03-17T04:38:52.577Z,0.00
2023-03-17T04:39:52.572Z,0.00
2023-03-17T04:40:52.557Z,0.00
2023-03-17T04:41:52.570Z,0.00
2023-03-17T04:42:52.540Z,0.00
2023-03-17T04:43:52.529Z,0.00
2023-03-17T04:44:52.522Z,0.00
2023-03-17T04:45:52.664Z,0.00
2023-03-17T04:46:52.513Z,0.00
2023-03-17T04:47:52.501Z,0.00
2023-03-17T04:48:52.494Z,0.00
2023-03-17T04:49:52.481Z,0.00
2023-03-17T04:50:52.480Z,0.00
2023-03-17T04:51:52.460Z,0.00
2023-03-17T04:52:52.471Z,0.00
2023-03-17T04:53:52.449Z,0.00
2023-03-17T04:54:52.439Z,0.00
2023-03-17T04:55:52.439Z,0.00
2023-03-17T04:56:52.427Z,0.00
2023-03-17T04:57:52.438Z,0.00
2023-03-17T04:58:52.404Z,0.00
2023-03-17T04:59:52.448Z,0.00
2023-03-17T05:00:52.414Z,0.00
2023-03-17T05:01:52.442Z,0.00
2023-03-17T05:02:52.406Z,0.00
2023-03-17T05:03:52.371Z,0.00
2023-03-17T05:04:52.363Z,0.00
2023-03-17T05:05:52.345Z,0.00
2023-03-17T05:06:52.337Z,0.00
2023-03-17T05:07:52.335Z,0.00
2023-03-17T05:08:52.317Z,0.00
2023-03-17T05:09:52.309Z,0.00
2023-03-17T05:10:52.300Z,0.00
2023-03-17T05:11:52.291Z,0.00
2023-03-17T05:12:52.282Z,0.00
2023-03-17T05:13:52.276Z,0.00
2023-03-17T05:14:52.279Z,0.00
2023-03-17T05:15:52.263Z,0.00
2023-03-17T05:16:52.256Z,0.00
2023-03-17T05:17:52.376Z,0.00
2023-03-17T05:18:52.342Z,0.00
2023-03-17T05:19:52.235Z,0.00
2023-03-17T05:20:52.227Z,0.00
2023-03-17T05:21:52.215Z,4.00
2023-03-17T05:22:52.196Z,4.00
2023-03-17T05:23:54.850Z,0.00
2023-03-17T05:24:52.177Z,4.00
2023-03-17T05:25:52.169Z,0.00
2023-03-17T05:26:52.187Z,4.00
2023-03-17T05:27:52.162Z,4.00
2023-03-17T05:28:52.158Z,4.00
2023-03-17T05:29:52.135Z,4.00
2023-03-17T05:30:52.215Z,8.00
2023-03-17T05:31:52.127Z,8.00
2023-03-17T05:32:52.146Z,12.00
2023-03-17T05:33:52.136Z,12.00
2023-03-17T05:34:52.125Z,12.00
2023-03-17T05:35:52.123Z,16.00
2023-03-17T05:36:52.078Z,16.00
2023-03-17T05:37:52.069Z,16.00
2023-03-17T05:38:52.083Z,20.00
2023-03-17T05:39:52.089Z,20.00
2023-03-17T05:40:52.050Z,24.00
2023-03-17T05:41:52.082Z,28.00
2023-03-17T05:42:52.075Z,28.00
2023-03-17T05:43:52.057Z,36.00
2023-03-17T05:44:52.038Z,36.00
2023-03-17T05:45:52.105Z,40.00
2023-03-17T05:46:52.027Z,40.00
2023-03-17T05:47:52.023Z,48.00
2023-03-17T05:48:52.008Z,52.00
2023-03-17T05:49:52.022Z,56.00
2023-03-17T05:50:51.954Z,64.00
2023-03-17T05:51:51.947Z,68.00
2023-03-17T05:52:51.950Z,76.00
2023-03-17T05:53:51.938Z,84.00
2023-03-17T05:54:51.959Z,88.00
2023-03-17T05:55:51.929Z,100.00
2023-03-17T05:56:51.917Z,108.00
2023-03-17T05:57:51.905Z,120.00
2023-03-17T05:58:51.901Z,132.00
2023-03-17T05:59:51.893Z,144.00
2023-03-17T06:00:51.878Z,160.00
2023-03-17T06:01:51.879Z,176.00
2023-03-17T06:02:51.908Z,188.00
2023-03-17T06:03:51.884Z,200.00
2023-03-17T06:04:51.852Z,212.00
2023-03-17T06:05:51.831Z,220.00
2023-03-17T06:06:51.872Z,236.00
2023-03-17T06:07:56.217Z,244.00
2023-03-17T06:08:51.859Z,256.00
2023-03-17T06:09:53.696Z,264.00
2023-03-17T06:10:51.815Z,276.00
2023-03-17T06:11:51.804Z,296.00
2023-03-17T06:12:51.792Z,308.00
2023-03-17T06:13:51.768Z,328.00
2023-03-17T06:14:51.780Z,348.00
2023-03-17T06:15:51.801Z,368.00
2023-03-17T06:16:51.785Z,392.00
2023-03-17T06:17:51.752Z,412.00
2023-03-17T06:18:51.742Z,432.00
2023-03-17T06:19:51.755Z,452.00
2023-03-17T06:20:51.731Z,468.00
2023-03-17T06:21:51.708Z,484.00
2023-03-17T06:23:03.432Z,496.00
2023-03-17T06:23:51.688Z,504.00
2023-03-17T06:24:51.707Z,516.00
2023-03-17T06:25:51.679Z,528.00
2023-03-17T06:26:51.693Z,540.00
2023-03-17T06:27:51.661Z,552.00
2023-03-17T06:28:51.657Z,572.00
2023-03-17T06:29:51.669Z,588.00
2023-03-17T06:30:51.716Z,604.00
2023-03-17T06:31:51.624Z,612.00
2023-03-17T06:32:51.685Z,620.00
2023-03-17T06:33:51.615Z,624.00
2023-03-17T06:34:51.594Z,632.00
2023-03-17T06:35:51.678Z,640.00
2023-03-17T06:36:51.620Z,652.00
2023-03-17T06:37:51.591Z,672.00
2023-03-17T06:38:51.571Z,692.00
2023-03-17T06:39:51.555Z,712.00
2023-03-17T06:40:51.565Z,736.00
2023-03-17T06:41:51.624Z,760.00
2023-03-17T06:42:51.537Z,784.00
2023-03-17T06:43:51.574Z,804.00
2023-03-17T06:44:51.523Z,820.00
2023-03-17T06:45:51.543Z,828.00
2023-03-17T06:46:51.594Z,844.00
2023-03-17T06:47:51.649Z,864.00
2023-03-17T06:48:51.538Z,888.00
2023-03-17T06:49:51.509Z,920.00
2023-03-17T06:50:51.488Z,940.00
2023-03-17T06:51:51.493Z,960.00
2023-03-17T06:52:51.484Z,980.00
2023-03-17T06:53:51.445Z,1000.00
2023-03-17T06:54:51.466Z,1016.00
2023-03-17T06:55:51.485Z,1028.00
2023-03-17T06:56:51.464Z,1032.00
2023-03-17T06:57:51.560Z,1032.00
2023-03-17T06:58:51.428Z,1032.00
2023-03-17T06:59:51.418Z,1032.00
2023-03-17T07:00:51.390Z,1040.00
2023-03-17T07:01:51.450Z,1064.00
2023-03-17T07:02:51.387Z,1084.00
2023-03-17T07:03:51.426Z,1108.00
2023-03-17T07:04:51.397Z,1120.00
2023-03-17T07:05:51.378Z,1140.00
2023-03-17T07:06:51.350Z,1160.00
2023-03-17T07:07:51.342Z,1184.00
2023-03-17T07:08:51.333Z,1192.00
2023-03-17T07:09:51.325Z,1184.00
2023-03-17T07:10:51.356Z,1164.00
2023-03-17T07:11:51.318Z,1152.00
2023-03-17T07:12:51.319Z,1144.00
2023-03-17T07:13:51.298Z,1148.00
2023-03-17T07:14:51.292Z,1148.00
2023-03-17T07:15:53.312Z,1156.00
2023-03-17T07:16:51.331Z,1156.00
2023-03-17T07:17:51.299Z,1156.00
2023-03-17T07:18:51.257Z,1168.00
2023-03-17T07:19:51.255Z,1184.00
2023-03-17T07:20:51.254Z,1200.00
2023-03-17T07:21:51.244Z,1212.00
2023-03-17T07:22:51.256Z,1228.00
2023-03-17T07:23:51.221Z,1232.00
2023-03-17T07:24:51.227Z,1248.00
2023-03-17T07:25:51.234Z,1252.00
2023-03-17T07:26:51.201Z,1244.00
2023-03-17T07:27:51.204Z,1228.00
2023-03-17T07:28:51.209Z,1212.00
2023-03-17T07:29:51.182Z,1228.00
2023-03-17T07:30:51.225Z,1240.00
2023-03-17T07:31:51.205Z,1240.00
2023-03-17T07:32:51.247Z,1240.00
2023-03-17T07:33:51.172Z,1244.00
2023-03-17T07:34:51.146Z,1260.00
2023-03-17T07:35:51.197Z,1280.00
2023-03-17T07:36:51.139Z,1284.00
2023-03-17T07:37:51.114Z,1288.00
2023-03-17T07:38:51.123Z,1296.00
2023-03-17T07:39:51.149Z,1328.00
2023-03-17T07:40:51.107Z,1356.00
2023-03-17T07:41:51.107Z,1388.00
2023-03-17T07:42:51.091Z,1428.00
2023-03-17T07:43:51.092Z,1460.00
2023-03-17T07:44:51.073Z,1476.00
2023-03-17T07:45:51.134Z,1496.00
2023-03-17T07:46:51.074Z,1544.00
2023-03-17T07:47:51.066Z,1604.00
2023-03-17T07:48:51.084Z,1644.00
2023-03-17T07:49:51.050Z,1656.00
2023-03-17T07:50:51.031Z,1660.00
2023-03-17T07:51:51.024Z,1652.00
2023-03-17T07:52:51.048Z,1648.00
2023-03-17T07:53:51.007Z,1644.00
2023-03-17T07:54:50.996Z,1648.00
2023-03-17T07:55:51.003Z,1664.00
2023-03-17T07:56:51.025Z,1680.00
2023-03-17T07:57:51.039Z,1684.00
2023-03-17T07:58:50.988Z,1676.00
2023-03-17T07:59:50.997Z,1656.00
2023-03-17T08:00:50.953Z,1648.00
2023-03-17T08:01:51.029Z,1636.00
2023-03-17T08:03:07.052Z,1640.00
2023-03-17T08:03:50.981Z,1644.00
2023-03-17T08:04:50.942Z,1660.00
2023-03-17T08:05:50.921Z,1672.00
2023-03-17T08:06:50.950Z,1676.00
2023-03-17T08:07:50.922Z,1676.00
2023-03-17T08:08:50.902Z,1672.00
2023-03-17T08:09:50.897Z,1672.00
2023-03-17T08:10:50.898Z,1688.00
2023-03-17T08:11:50.942Z,1716.00
2023-03-17T08:12:50.873Z,1756.00
2023-03-17T08:13:50.872Z,1812.00
2023-03-17T08:14:50.905Z,1832.00
2023-03-17T08:15:50.903Z,1844.00
2023-03-17T08:16:50.906Z,1876.00
2023-03-17T08:17:50.885Z,1864.00
2023-03-17T08:18:50.842Z,1836.00
2023-03-17T08:19:50.896Z,1844.00
2023-03-17T08:20:50.840Z,1848.00
2023-03-17T08:21:50.901Z,1844.00
2023-03-17T08:22:50.883Z,1848.00
2023-03-17T08:23:50.878Z,1860.00
2023-03-17T08:24:50.808Z,1852.00
2023-03-17T08:25:50.803Z,1868.00
2023-03-17T08:26:50.854Z,1856.00
2023-03-17T08:27:50.827Z,1820.00
2023-03-17T08:28:50.785Z,1776.00
2023-03-17T08:29:50.784Z,1708.00
2023-03-17T08:30:50.931Z,1684.00
2023-03-17T08:31:50.812Z,1668.00
2023-03-17T08:32:50.810Z,1652.00
2023-03-17T08:33:50.754Z,1640.00
2023-03-17T08:34:50.764Z,1636.00
2023-03-17T08:35:50.830Z,1588.00
2023-03-17T08:36:50.724Z,1544.00
2023-03-17T08:37:50.721Z,1484.00
2023-03-17T08:38:50.750Z,1456.00
2023-03-17T08:39:50.742Z,1432.00
2023-03-17T08:40:50.763Z,1424.00
2023-03-17T08:41:50.722Z,1412.00
2023-03-17T08:42:50.691Z,1344.00
2023-03-17T08:43:50.724Z,1284.00
2023-03-17T08:44:50.676Z,1252.00
2023-03-17T08:45:50.693Z,1256.00
2023-03-17T08:46:50.665Z,1256.00
2023-03-17T08:47:50.685Z,1268.00
2023-03-17T08:48:50.696Z,1284.00
2023-03-17T08:49:50.686Z,1304.00
2023-03-17T08:50:50.649Z,1336.00
2023-03-17T08:51:50.654Z,1384.00
2023-03-17T08:52:50.662Z,1420.00
2023-03-17T08:53:50.626Z,1456.00
2023-03-17T08:54:50.655Z,1484.00
2023-03-17T08:55:50.621Z,1552.00
2023-03-17T08:56:50.649Z,1564.00
2023-03-17T08:57:50.620Z,1552.00
2023-03-17T08:58:50.592Z,1504.00
2023-03-17T08:59:50.639Z,1576.00
2023-03-17T09:00:50.577Z,1608.00
2023-03-17T09:01:50.778Z,1668.00
2023-03-17T09:02:50.652Z,1752.00
2023-03-17T09:03:50.565Z,1820.00
2023-03-17T09:04:50.575Z,1876.00
2023-03-17T09:05:50.589Z,1928.00
2023-03-17T09:07:02.695Z,1988.00
2023-03-17T09:07:50.621Z,2044.00
2023-03-17T09:08:50.526Z,2096.00
2023-03-17T09:09:50.571Z,2176.00
2023-03-17T09:10:50.531Z,2280.00
2023-03-17T09:11:50.547Z,2352.00
2023-03-17T09:12:50.565Z,2360.00
2023-03-17T09:13:50.499Z,2416.00
2023-03-17T09:14:50.524Z,2424.00
2023-03-17T09:15:52.029Z,2584.00
2023-03-17T09:16:50.548Z,2696.00
2023-03-17T09:17:50.505Z,2848.00
2023-03-17T09:18:50.478Z,2868.00
2023-03-17T09:19:50.482Z,2968.00
2023-03-17T09:20:50.526Z,2960.00
2023-03-17T09:21:50.453Z,2780.00
2023-03-17T09:22:50.456Z,2944.00
2023-03-17T09:23:50.497Z,2992.00
2023-03-17T09:24:50.462Z,2988.00
2023-03-17T09:25:50.475Z,2940.00
2023-03-17T09:26:50.424Z,3044.00
2023-03-17T09:27:50.457Z,3160.00
2023-03-17T09:28:50.473Z,3280.00
2023-03-17T09:29:50.407Z,3364.00
2023-03-17T09:30:50.492Z,3368.00
2023-03-17T09:31:50.399Z,3376.00
2023-03-17T09:32:50.428Z,3420.00
2023-03-17T09:33:50.463Z,3444.00
2023-03-17T09:34:51.655Z,3532.00
2023-03-17T09:35:50.424Z,3576.00
2023-03-17T09:36:50.377Z,3536.00
2023-03-17T09:37:50.444Z,3548.00
2023-03-17T09:38:50.391Z,3668.00
2023-03-17T09:39:50.353Z,3696.00
2023-03-17T09:40:50.354Z,3724.00
2023-03-17T09:41:50.402Z,4032.00
2023-03-17T09:42:50.400Z,5020.00
2023-03-17T09:43:50.336Z,7136.00
2023-03-17T09:44:50.356Z,8676.00
2023-03-17T09:45:50.368Z,9048.00
2023-03-17T09:46:50.384Z,9544.00
2023-03-17T09:47:50.335Z,8368.00
2023-03-17T09:48:50.325Z,9568.00
2023-03-17T09:49:50.321Z,10532.00
2023-03-17T09:50:50.305Z,10616.00
2023-03-17T09:51:50.287Z,11060.00
2023-03-17T09:52:51.444Z,11304.00
2023-03-17T09:53:50.360Z,10460.00
2023-03-17T09:54:50.282Z,10500.00
2023-03-17T09:55:50.300Z,12280.00
2023-03-17T09:56:50.295Z,12320.00
2023-03-17T09:57:50.271Z,11784.00
2023-03-17T09:58:51.351Z,12188.00
2023-03-17T09:59:50.261Z,8856.00
2023-03-17T10:00:50.265Z,10828.00
2023-03-17T10:01:50.404Z,12668.00
2023-03-17T10:02:50.260Z,10588.00
2023-03-17T10:03:50.260Z,11016.00
2023-03-17T10:04:50.393Z,10656.00
2023-03-17T10:05:50.271Z,10324.00
2023-03-17T10:06:50.247Z,9996.00
2023-03-17T10:07:50.246Z,8528.00
2023-03-17T10:08:50.291Z,11916.00
2023-03-17T10:09:50.276Z,14408.00
2023-03-17T10:10:50.223Z,14444.00
2023-03-17T10:11:50.262Z,13024.00
2023-03-17T10:12:50.231Z,16416.00
2023-03-17T10:13:50.290Z,16544.00
2023-03-17T10:14:51.336Z,16704.00
2023-03-17T10:15:50.262Z,9836.00
2023-03-17T10:16:50.210Z,15360.00
2023-03-17T10:17:50.209Z,13696.00
2023-03-17T10:18:50.223Z,13436.00
2023-03-17T10:19:50.211Z,12904.00
2023-03-17T10:20:51.661Z,14948.00
2023-03-17T10:21:50.206Z,17184.00
2023-03-17T10:22:50.200Z,18976.00
2023-03-17T10:23:50.198Z,19168.00
2023-03-17T10:24:50.212Z,16832.00
2023-03-17T10:25:50.213Z,16864.00
2023-03-17T10:26:50.237Z,19424.00
2023-03-17T10:27:50.191Z,18496.00
2023-03-17T10:28:50.179Z,12068.00
2023-03-17T10:29:50.229Z,10716.00
2023-03-17T10:30:50.219Z,21536.00
2023-03-17T10:31:50.305Z,19584.00
2023-03-17T10:32:50.279Z,8856.00
2023-03-17T10:33:50.238Z,16608.00
2023-03-17T10:34:50.222Z,17120.00
2023-03-17T10:35:50.191Z,15936.00
2023-03-17T10:36:50.204Z,15968.00
2023-03-17T10:37:50.190Z,16544.00
2023-03-17T10:38:50.203Z,14772.00
2023-03-17T10:39:50.206Z,13812.00
2023-03-17T10:40:50.183Z,14012.00
2023-03-17T10:41:50.174Z,12192.00
2023-03-17T10:42:50.175Z,16160.00
2023-03-17T10:43:50.177Z,16576.00
2023-03-17T10:44:50.229Z,15808.00
2023-03-17T10:45:50.163Z,13664.00
2023-03-17T10:46:50.219Z,13184.00
2023-03-17T10:47:50.204Z,12296.00
2023-03-17T10:48:50.167Z,10140.00
2023-03-17T10:49:50.170Z,12244.00
2023-03-17T10:50:51.643Z,12720.00
2023-03-17T10:51:50.163Z,12376.00
2023-03-17T10:52:50.189Z,8284.00
2023-03-17T10:53:50.176Z,9492.00
2023-03-17T10:54:50.187Z,10576.00
2023-03-17T10:55:50.164Z,11764.00
2023-03-17T10:56:50.192Z,13432.00
2023-03-17T10:57:50.192Z,18240.00
2023-03-17T10:58:50.187Z,16960.00
2023-03-17T10:59:50.192Z,12908.00
2023-03-17T11:00:50.158Z,13436.00
2023-03-17T11:01:50.155Z,14060.00
2023-03-17T11:02:50.203Z,10760.00
2023-03-17T11:03:50.191Z,9596.00
2023-03-17T11:04:50.180Z,7036.00
2023-03-17T11:05:50.147Z,10856.00
2023-03-17T11:06:50.185Z,13028.00
2023-03-17T11:07:50.170Z,8340.00
2023-03-17T11:08:50.161Z,6212.00
2023-03-17T11:09:50.142Z,6468.00
2023-03-17T11:10:50.182Z,7936.00
2023-03-17T11:11:50.168Z,7048.00
2023-03-17T11:12:50.149Z,8060.00
2023-03-17T11:13:50.153Z,8056.00
2023-03-17T11:14:50.136Z,7816.00
2023-03-17T11:15:50.145Z,7336.00
2023-03-17T11:16:50.176Z,7708.00
2023-03-17T11:17:50.131Z,7328.00
2023-03-17T11:18:50.123Z,7868.00
2023-03-17T11:19:50.130Z,7304.00
2023-03-17T11:20:50.132Z,6920.00
2023-03-17T11:21:50.178Z,8068.00
2023-03-17T11:22:50.134Z,7052.00
2023-03-17T11:23:50.132Z,6236.00
2023-03-17T11:24:50.171Z,6764.00
2023-03-17T11:25:50.156Z,5628.00
2023-03-17T11:26:50.124Z,5064.00
2023-03-17T11:27:50.172Z,5112.00
2023-03-17T11:28:50.118Z,5136.00
2023-03-17T11:29:50.105Z,5820.00
2023-03-17T11:30:50.165Z,5332.00
2023-03-17T11:31:50.153Z,5416.00
2023-03-17T11:32:50.173Z,4740.00
2023-03-17T11:33:50.166Z,4692.00
2023-03-17T11:34:50.110Z,4508.00
2023-03-17T11:35:50.203Z,4416.00
2023-03-17T11:36:50.101Z,4884.00
2023-03-17T11:37:50.126Z,4636.00
2023-03-17T11:38:50.123Z,5188.00
2023-03-17T11:39:50.134Z,5032.00
2023-03-17T11:40:50.125Z,4976.00
2023-03-17T11:41:50.079Z,4496.00
2023-03-17T11:42:50.155Z,4904.00
2023-03-17T11:43:50.078Z,4840.00
2023-03-17T11:44:50.095Z,5076.00
2023-03-17T11:45:50.090Z,5432.00
2023-03-17T11:46:50.097Z,5484.00
2023-03-17T11:47:50.069Z,5460.00
2023-03-17T11:48:50.092Z,5456.00
2023-03-17T11:49:50.060Z,5552.00
2023-03-17T11:50:50.073Z,6740.00
2023-03-17T11:51:50.100Z,5512.00
2023-03-17T11:52:50.070Z,4356.00
2023-03-17T11:53:50.052Z,4808.00
2023-03-17T11:54:50.066Z,5060.00
2023-03-17T11:55:50.144Z,4796.00
2023-03-17T11:56:50.046Z,4140.00
2023-03-17T11:57:50.032Z,3820.00
2023-03-17T11:58:50.028Z,3640.00
2023-03-17T11:59:50.029Z,3532.00
2023-03-17T12:00:50.094Z,3424.00
2023-03-17T12:01:50.021Z,3360.00
2023-03-17T12:02:50.036Z,3304.00
2023-03-17T12:03:50.147Z,3328.00
2023-03-17T12:04:50.097Z,3284.00
2023-03-17T12:05:50.030Z,3208.00
2023-03-17T12:06:50.051Z,3136.00
2023-03-17T12:07:50.008Z,3076.00
2023-03-17T12:08:50.024Z,3072.00
2023-03-17T12:09:49.991Z,3120.00
2023-03-17T12:10:50.046Z,3156.00
2023-03-17T12:11:50.012Z,3224.00
2023-03-17T12:12:50.008Z,3288.00
2023-03-17T12:13:49.992Z,3312.00
2023-03-17T12:14:50.054Z,3352.00
2023-03-17T12:15:50.127Z,3364.00
2023-03-17T12:16:49.962Z,3364.00
2023-03-17T12:17:49.991Z,3348.00
2023-03-17T12:18:50.021Z,3324.00
2023-03-17T12:19:50.023Z,3256.00
2023-03-17T12:20:49.995Z,3228.00
2023-03-17T12:21:50.013Z,3224.00
2023-03-17T12:22:49.949Z,3212.00
2023-03-17T12:23:49.978Z,3132.00
2023-03-17T12:24:49.954Z,3048.00
2023-03-17T12:25:49.935Z,3060.00
2023-03-17T12:26:49.924Z,3052.00
2023-03-17T12:27:49.963Z,3040.00
2023-03-17T12:28:49.969Z,3064.00
2023-03-17T12:29:49.988Z,3044.00
2023-03-17T12:30:50.031Z,3044.00
2023-03-17T12:31:49.917Z,3056.00
2023-03-17T12:32:49.933Z,3076.00
2023-03-17T12:33:49.899Z,3072.00
2023-03-17T12:34:49.942Z,3060.00
2023-03-17T12:35:49.914Z,3040.00
2023-03-17T12:36:49.958Z,3016.00
2023-03-17T12:37:49.881Z,2972.00